Time;durP1;ratioP1;P1;durP2;ratioP2;P2;SDS_P1;SDS_P2;PMS_P1;PMS_P2;Temp;Humidity;BMP_temperature;BMP_pressure;BME280_temperature;BME280_humidity;BME280_pressure;Samples;Min_cycle;Max_cycle;Signal;HPM_P1;HPM_P2
2021/09/15 00:01:58;;;;;;;23.48;16.50;;;;;;;18.59;100.00;101006.00;10497541;28;20091;-56
2021/09/15 00:07:00;;;;;;;15.55;14.05;;;;;;;18.51;100.00;101003.22;10497150;28;20480;-57
2021/09/15 00:12:03;;;;;;;17.55;13.75;;;;;;;18.58;100.00;101004.34;10497311;28;20504;-59
2021/09/15 00:17:05;;;;;;;11.77;10.63;;;;;;;18.62;100.00;100994.31;10497476;28;20044;-59
2021/09/15 00:22:07;;;;;;;16.92;13.70;;;;;;;18.35;100.00;100993.94;10497576;28;20049;-56
2021/09/15 00:27:10;;;;;;;14.23;12.77;;;;;;;18.35;100.00;100996.56;10496743;28;20047;-56
2021/09/15 00:32:12;;;;;;;19.92;13.50;;;;;;;18.48;100.00;100995.53;10497444;28;20055;-56
2021/09/15 00:37:14;;;;;;;16.35;12.90;;;;;;;18.52;100.00;100984.50;10496692;28;20044;-58
2021/09/15 00:42:17;;;;;;;15.40;13.27;;;;;;;18.47;100.00;100991.19;10497082;28;20403;-57
2021/09/15 00:47:19;;;;;;;16.55;14.00;;;;;;;18.38;100.00;100996.31;10497527;28;20064;-56
2021/09/15 00:52:22;;;;;;;15.50;12.65;;;;;;;18.42;100.00;100994.22;10503646;28;20412;-57
2021/09/15 00:57:24;;;;;;;19.95;15.60;;;;;;;18.41;100.00;100995.22;10503685;28;20053;-58
2021/09/15 01:02:27;;;;;;;12.88;10.20;;;;;;;18.70;100.00;100992.63;10503387;28;20048;-57
2021/09/15 01:07:31;;;;;;;12.63;10.25;;;;;;;18.56;100.00;100987.75;10503155;28;20520;-56
2021/09/15 01:12:34;;;;;;;12.80;9.95;;;;;;;18.61;100.00;101004.06;10501987;28;20071;-57
2021/09/15 01:17:37;;;;;;;13.80;11.02;;;;;;;18.42;100.00;101001.34;10502983;28;20094;-56
2021/09/15 01:22:40;;;;;;;12.27;11.07;;;;;;;18.48;100.00;100993.69;10502679;28;20060;-55
2021/09/15 01:27:42;;;;;;;16.02;9.70;;;;;;;18.26;100.00;100985.97;10502272;28;20048;-54
2021/09/15 01:32:44;;;;;;;12.25;11.02;;;;;;;18.46;100.00;100995.66;10501202;28;20052;-54
2021/09/15 01:37:47;;;;;;;11.75;9.75;;;;;;;18.41;100.00;101002.31;10502414;28;20433;-57
2021/09/15 01:42:51;;;;;;;13.73;10.73;;;;;;;18.38;100.00;100990.19;10502063;28;20496;-58
2021/09/15 01:47:54;;;;;;;12.10;10.90;;;;;;;18.17;100.00;100975.19;10501529;28;20051;-56
2021/09/15 01:52:56;;;;;;;16.25;11.80;;;;;;;18.12;100.00;100976.53;10500869;28;20071;-56
2021/09/15 01:57:59;;;;;;;16.95;12.75;;;;;;;18.04;100.00;100974.56;10501098;28;20048;-56
2021/09/15 02:03:01;;;;;;;16.17;13.07;;;;;;;17.86;100.00;100968.16;10501042;28;20481;-56
2021/09/15 02:08:04;;;;;;;14.45;10.23;;;;;;;17.96;100.00;100961.97;10500931;28;20048;-56
2021/09/15 02:13:06;;;;;;;14.57;11.68;;;;;;;17.84;100.00;100963.00;10500680;28;20045;-57
2021/09/15 02:18:08;;;;;;;15.63;11.60;;;;;;;17.74;100.00;100970.06;10500218;28;20048;-57
2021/09/15 02:23:11;;;;;;;14.88;11.38;;;;;;;17.97;100.00;100968.09;10500667;28;20064;-56
2021/09/15 02:28:13;;;;;;;13.32;12.02;;;;;;;17.79;100.00;100967.84;10499931;28;20051;-56
2021/09/15 02:33:15;;;;;;;15.02;11.65;;;;;;;17.80;100.00;100962.44;10500014;28;20059;-56
2021/09/15 02:38:18;;;;;;;18.42;13.35;;;;;;;17.83;100.00;100970.09;10499443;28;20049;-56
2021/09/15 02:43:20;;;;;;;16.38;12.60;;;;;;;17.78;100.00;100958.22;10499311;28;20503;-59
2021/09/15 02:48:22;;;;;;;21.50;12.85;;;;;;;17.76;100.00;100958.34;10499101;28;20053;-58
2021/09/15 02:53:24;;;;;;;16.95;14.52;;;;;;;17.81;100.00;100950.84;10498982;28;20501;-53
2021/09/15 02:58:27;;;;;;;20.27;14.18;;;;;;;17.73;100.00;100949.84;10498888;28;20045;-55
2021/09/15 03:03:29;;;;;;;20.00;15.55;;;;;;;17.59;100.00;100935.97;10499607;28;20044;-56
2021/09/15 03:08:31;;;;;;;18.58;13.73;;;;;;;17.61;100.00;100938.47;10498599;28;20062;-56
2021/09/15 03:13:34;;;;;;;14.73;11.23;;;;;;;17.63;100.00;100942.69;10497882;28;20056;-55
2021/09/15 03:18:36;;;;;;;14.93;13.35;;;;;;;17.50;100.00;100943.84;10498589;28;20052;-55
2021/09/15 03:23:38;;;;;;;17.67;12.38;;;;;;;17.60;100.00;100950.88;10498063;28;20056;-54
2021/09/15 03:28:41;;;;;;;16.58;13.25;;;;;;;17.73;100.00;100945.38;10498450;28;20049;-56
2021/09/15 03:33:43;;;;;;;18.50;11.75;;;;;;;17.63;100.00;100937.41;10497826;28;20439;-56
2021/09/15 03:38:45;;;;;;;16.70;10.90;;;;;;;17.86;100.00;100931.09;10497673;28;20051;-57
2021/09/15 03:43:48;;;;;;;21.67;15.32;;;;;;;17.63;100.00;100923.28;10497734;28;20400;-57
2021/09/15 03:48:50;;;;;;;16.73;14.80;;;;;;;17.76;100.00;100915.97;10497799;28;20138;-58
2021/09/15 03:53:52;;;;;;;14.70;12.48;;;;;;;17.82;100.00;100906.69;10497953;28;20071;-59
2021/09/15 03:58:55;;;;;;;19.15;12.57;;;;;;;17.82;100.00;100906.69;10496688;28;20048;-58
2021/09/15 04:03:57;;;;;;;18.73;13.45;;;;;;;17.76;100.00;100907.22;10498597;28;20045;-58
2021/09/15 04:08:59;;;;;;;21.83;17.75;;;;;;;17.90;100.00;100904.22;10497298;28;20439;-59
2021/09/15 04:14:02;;;;;;;25.48;18.38;;;;;;;17.70;100.00;100900.63;10497318;28;20056;-57
2021/09/15 04:19:04;;;;;;;21.95;17.75;;;;;;;17.79;100.00;100901.66;10497204;28;20052;-57
2021/09/15 04:34:30;;;;;;;31.05;20.95;;;;;;;17.82;100.00;100899.56;10504494;28;20056;-57
2021/09/15 04:39:32;;;;;;;27.80;18.67;;;;;;;17.80;100.00;100905.97;10504476;28;20044;-58
2021/09/15 04:44:34;;;;;;;16.45;14.13;;;;;;;17.70;100.00;100908.59;10504183;28;20052;-59
2021/09/15 04:49:36;;;;;;;15.05;13.48;;;;;;;17.96;100.00;100908.16;10503958;28;20137;-57
2021/09/15 04:54:39;;;;;;;16.00;14.30;;;;;;;18.15;100.00;100908.22;10504343;28;20044;-56
2021/09/15 04:59:41;;;;;;;21.25;14.20;;;;;;;17.85;100.00;100913.50;10503395;28;20404;-58
2021/09/15 05:04:43;;;;;;;21.23;17.65;;;;;;;17.85;100.00;100914.34;10503858;28;20048;-57
2021/09/15 05:09:46;;;;;;;26.33;21.30;;;;;;;17.91;100.00;100915.69;10503203;28;20045;-56
2021/09/15 05:14:48;;;;;;;18.95;15.68;;;;;;;18.03;100.00;100916.41;10502604;28;20074;-57
2021/09/15 05:19:51;;;;;;;26.38;20.75;;;;;;;18.01;100.00;100917.38;10502938;28;20052;-56
2021/09/15 05:24:54;;;;;;;40.75;23.58;;;;;;;18.12;100.00;100912.94;10502577;28;20063;-56
2021/09/15 05:29:56;;;;;;;21.05;18.85;;;;;;;17.98;100.00;100917.63;10502515;28;20044;-57
2021/09/15 05:34:59;;;;;;;22.88;18.67;;;;;;;18.12;100.00;100916.47;10501642;28;20443;-56
2021/09/15 05:40:02;;;;;;;19.58;17.23;;;;;;;18.16;100.00;100917.03;10502481;28;20052;-58
2021/09/15 05:45:05;;;;;;;32.55;22.70;;;;;;;18.10;100.00;100912.25;10502139;28;20053;-57
2021/09/15 05:50:08;;;;;;;25.90;20.48;;;;;;;18.10;100.00;100923.69;10501440;28;20503;-57
2021/09/15 05:55:10;;;;;;;20.92;17.45;;;;;;;18.00;100.00;100914.84;10501426;28;20512;-57
2021/09/15 06:00:13;;;;;;;24.00;16.90;;;;;;;18.23;100.00;100910.19;10501277;28;20048;-57
2021/09/15 06:05:28;;;;;;;20.15;16.15;;;;;;;18.03;100.00;100919.06;10501517;28;20055;-56
2021/09/15 06:10:30;;;;;;;30.15;21.77;;;;;;;18.09;100.00;100913.22;10500716;28;20052;-56
2021/09/15 06:15:32;;;;;;;21.13;18.30;;;;;;;18.07;100.00;100915.16;10500746;28;20055;-58
2021/09/15 06:20:37;;;;;;;26.33;22.45;;;;;;;18.16;100.00;100923.16;10500132;28;20045;-58
2021/09/15 06:25:42;;;;;;;29.92;21.80;;;;;;;18.20;100.00;100924.53;10500534;28;20054;-57
2021/09/15 06:30:45;;;;;;;26.70;20.30;;;;;;;18.16;100.00;100925.81;10499834;28;20053;-59
2021/09/15 06:35:48;;;;;;;21.85;19.48;;;;;;;18.18;100.00;100923.84;10498383;28;20431;-58
2021/09/15 06:40:50;;;;;;;38.08;25.25;;;;;;;18.24;100.00;100929.59;10499447;28;20476;-58
2021/09/15 06:45:52;;;;;;;26.92;23.67;;;;;;;18.29;100.00;100930.00;10498526;28;20045;-60
2021/09/15 06:50:55;;;;;;;47.75;30.55;;;;;;;18.38;100.00;100927.41;10499221;28;20059;-59
2021/09/15 06:55:57;;;;;;;36.50;27.17;;;;;;;18.04;100.00;100933.97;10499393;28;20056;-59
2021/09/15 07:00:59;;;;;;;39.42;26.20;;;;;;;18.17;100.00;100931.94;10499101;28;20050;-59
2021/09/15 07:06:02;;;;;;;77.38;38.40;;;;;;;18.23;100.00;100927.94;10498910;28;20053;-60
2021/09/15 07:11:04;;;;;;;49.08;33.85;;;;;;;18.26;100.00;100933.78;10498246;28;20044;-60
2021/09/15 07:16:06;;;;;;;34.75;28.85;;;;;;;18.24;100.00;100932.22;10498205;28;20049;-60
2021/09/15 07:21:09;;;;;;;48.78;34.30;;;;;;;18.29;100.00;100933.53;10498328;28;20047;-60
2021/09/15 07:26:11;;;;;;;49.95;35.00;;;;;;;18.22;100.00;100937.66;10499067;28;20056;-60
2021/09/15 07:31:13;;;;;;;47.22;37.42;;;;;;;18.16;100.00;100943.53;10498353;28;20052;-59
2021/09/15 07:36:16;;;;;;;35.75;30.75;;;;;;;18.20;100.00;100935.16;10497943;28;20048;-60
2021/09/15 07:41:18;;;;;;;29.70;26.48;;;;;;;18.28;100.00;100945.09;10496399;28;20511;-60
2021/09/15 07:46:22;;;;;;;32.17;27.77;;;;;;;18.37;100.00;100946.09;10497466;28;20499;-60
2021/09/15 07:51:24;;;;;;;33.72;27.90;;;;;;;18.51;100.00;100958.16;10497886;28;20045;-60
2021/09/15 07:56:27;;;;;;;42.13;33.38;;;;;;;18.30;100.00;100950.25;10498778;28;20488;-60
2021/09/15 08:01:29;;;;;;;53.03;37.75;;;;;;;18.31;100.00;100960.72;10505633;28;20416;-60
2021/09/15 08:06:32;;;;;;;60.30;38.03;;;;;;;18.51;100.00;100958.16;10505505;28;20488;-60
2021/09/15 08:11:50;;;;;;;36.78;29.50;;;;;;;18.43;100.00;100950.03;10505670;28;20060;-60
2021/09/15 08:16:54;;;;;;;42.65;32.55;;;;;;;18.49;100.00;100952.13;10505495;28;20131;-61
2021/09/15 08:21:56;;;;;;;38.58;27.17;;;;;;;18.57;100.00;100953.09;10505100;28;20049;-60
2021/09/15 08:26:58;;;;;;;36.05;28.75;;;;;;;18.82;100.00;100942.13;10504654;28;20499;-59
2021/09/15 08:32:01;;;;;;;44.53;32.03;;;;;;;18.62;100.00;100931.50;10504669;28;20485;-60
2021/09/15 08:37:03;;;;;;;32.10;28.60;;;;;;;18.77;100.00;100936.41;10504579;28;20052;-60
2021/09/15 08:42:06;;;;;;;40.08;33.78;;;;;;;19.06;100.00;100934.66;10504352;28;20049;-59
2021/09/15 08:47:09;;;;;;;33.10;29.50;;;;;;;18.97;100.00;100926.69;10503882;28;20049;-60
2021/09/15 08:52:11;;;;;;;32.83;28.48;;;;;;;19.31;100.00;100935.03;10502655;28;20044;-60
2021/09/15 08:57:13;;;;;;;25.15;22.55;;;;;;;19.58;100.00;100936.94;10503687;28;20477;-60
2021/09/15 09:02:16;;;;;;;23.05;20.75;;;;;;;20.01;100.00;100938.22;10503474;28;20055;-60
2021/09/15 09:07:19;;;;;;;24.77;22.17;;;;;;;20.41;100.00;100937.06;10502904;28;20052;-60
2021/09/15 09:12:27;;;;;;;28.25;25.33;;;;;;;21.22;100.00;100927.38;10502980;28;20044;-59
2021/09/15 09:17:31;;;;;;;28.67;24.85;;;;;;;21.44;100.00;100928.69;10503302;28;20059;-59
2021/09/15 09:22:34;;;;;;;29.25;24.48;;;;;;;21.07;100.00;100927.09;10502763;28;20400;-59
2021/09/15 09:27:37;;;;;;;22.63;19.85;;;;;;;20.68;100.00;100908.78;10502371;28;20047;-59
2021/09/15 09:32:45;;;;;;;21.85;16.38;;;;;;;20.83;100.00;100922.41;10501367;28;20044;-60
2021/09/15 09:37:47;;;;;;;24.83;21.13;;;;;;;20.24;100.00;100929.88;10501627;28;20063;-60
2021/09/15 09:42:49;;;;;;;27.65;22.23;;;;;;;20.68;100.00;100945.16;10502195;28;20061;-60
2021/09/15 09:47:58;;;;;;;31.30;25.52;;;;;;;21.01;100.00;100941.00;10501810;28;20067;-60
2021/09/15 09:53:02;;;;;;;23.38;20.92;;;;;;;21.31;100.00;100949.56;10501929;28;20045;-60
2021/09/15 09:58:07;;;;;;;23.75;21.42;;;;;;;21.42;100.00;100932.53;10501512;28;20052;-59
2021/09/15 10:03:09;;;;;;;26.27;23.65;;;;;;;21.09;100.00;100933.09;10500987;28;20471;-59
2021/09/15 10:08:13;;;;;;;28.30;24.95;;;;;;;20.82;100.00;100941.16;10501046;28;20052;-59
2021/09/15 10:13:16;;;;;;;29.25;25.52;;;;;;;20.63;100.00;100939.47;10500153;28;20056;-60
2021/09/15 10:18:19;;;;;;;30.05;26.98;;;;;;;20.81;100.00;100945.63;10500440;28;20413;-60
2021/09/15 10:23:47;;;;;;;30.45;27.17;;;;;;;20.81;100.00;100950.97;10499257;28;20074;-60
2021/09/15 10:29:15;;;;;;;30.38;26.55;;;;;;;20.87;100.00;100950.38;10499999;28;20485;-61
2021/09/15 10:34:45;;;;;;;33.83;28.85;;;;;;;20.86;100.00;100966.47;10500285;28;20055;-59
2021/09/15 10:40:09;;;;;;;32.70;29.02;;;;;;;20.90;100.00;100959.88;10497870;28;20408;-59
2021/09/15 10:45:29;;;;;;;35.90;31.58;;;;;;;21.12;100.00;100967.41;10499318;28;20485;-60
2021/09/15 10:50:33;;;;;;;39.58;34.20;;;;;;;21.31;100.00;100962.88;10499501;28;20045;-59
2021/09/15 10:55:39;;;;;;;43.25;36.88;;;;;;;21.01;100.00;100959.63;10499034;28;20523;-60
2021/09/15 11:00:59;;;;;;;54.25;42.63;;;;;;;20.76;100.00;100962.06;10498770;28;20044;-60
2021/09/15 11:06:07;;;;;;;62.58;48.50;;;;;;;20.57;100.00;100944.38;10498852;28;20052;-59
2021/09/15 11:11:32;;;;;;;56.20;43.22;;;;;;;21.21;100.00;100946.16;10498595;28;20400;-60
2021/09/15 11:16:36;;;;;;;63.70;52.10;;;;;;;20.40;100.00;100955.81;10498623;28;20054;-58
2021/09/15 11:21:41;;;;;;;57.90;46.05;;;;;;;20.92;100.00;100969.38;10498317;28;20048;-60
2021/09/15 11:26:47;;;;;;;59.97;47.13;;;;;;;20.66;100.00;100968.44;10498087;28;20052;-60
2021/09/15 11:31:50;;;;;;;59.95;47.33;;;;;;;20.77;100.00;100970.88;10497841;28;20048;-60
2021/09/15 11:36:52;;;;;;;60.92;47.05;;;;;;;21.10;100.00;100965.88;10498236;28;20045;-60
2021/09/15 11:42:02;;;;;;;62.47;48.63;;;;;;;21.01;100.00;100980.09;10498086;28;20052;-60
2021/09/15 11:47:05;;;;;;;52.23;42.90;;;;;;;20.70;100.00;100977.81;10498292;28;20151;-59
2021/09/15 11:52:07;;;;;;;52.35;41.88;;;;;;;21.05;100.00;100973.50;10498224;28;20044;-59
2021/09/15 11:57:11;;;;;;;49.72;40.63;;;;;;;22.25;100.00;100972.81;10497934;28;20094;-60
2021/09/15 12:02:14;;;;;;;48.72;38.42;;;;;;;22.06;100.00;100975.75;10496459;28;20044;-59
2021/09/15 12:07:17;;;;;;;39.72;34.40;;;;;;;20.87;100.00;100984.13;10497587;28;20400;-61
2021/09/15 12:12:19;;;;;;;30.20;25.27;;;;;;;21.33;100.00;100984.88;10496120;28;20045;-60
2021/09/15 12:17:21;;;;;;;23.02;20.65;;;;;;;21.51;97.53;100977.72;10497319;28;20048;-59
2021/09/15 12:22:29;;;;;;;19.73;17.63;;;;;;;21.37;97.95;100983.59;10497771;28;20060;-59
2021/09/15 12:27:32;;;;;;;19.20;16.67;;;;;;;22.41;94.68;100981.94;10496217;28;20076;-60
2021/09/15 12:32:39;;;;;;;19.10;17.15;;;;;;;21.64;94.44;100976.50;10497495;28;20099;-60
2021/09/15 12:37:42;;;;;;;17.65;14.98;;;;;;;22.31;88.69;100974.06;10496831;28;20053;-59
2021/09/15 12:43:02;;;;;;;15.35;13.77;;;;;;;23.34;84.47;100960.41;10498886;28;20049;-60
2021/09/15 12:48:14;;;;;;;16.75;12.63;;;;;;;23.54;82.51;100965.41;10504208;28;20483;-60
2021/09/15 12:53:16;;;;;;;10.07;9.07;;;;;;;23.59;83.11;100964.88;10504512;28;20055;-60
2021/09/15 12:58:25;;;;;;;8.50;7.50;;;;;;;;;;10504230;28;20047;-60
2021/09/15 13:03:38;;;;;;;8.63;6.78;;;;;;;21.69;85.75;100969.69;10504100;28;20111;-59
2021/09/15 13:08:48;;;;;;;8.20;6.80;;;;;;;21.97;89.61;100976.69;10503432;28;20041;-60
2021/09/15 13:13:51;;;;;;;10.07;7.30;;;;;;;21.29;89.12;100981.69;10503339;28;20492;-60
2021/09/15 13:18:53;;;;;;;7.78;5.28;;;;;;;21.52;89.62;100983.91;10501998;28;20051;-59
2021/09/15 13:23:56;;;;;;;8.77;4.38;;;;;;;20.88;88.70;100983.13;10502579;28;20053;-60
2021/09/15 13:28:58;;;;;;;9.55;5.43;;;;;;;21.38;89.28;100981.75;10502552;28;20435;-60
2021/09/15 13:34:00;;;;;;;6.60;3.80;;;;;;;21.12;88.13;100993.19;10502125;28;20396;-60
2021/09/15 13:39:03;;;;;;;9.85;4.18;;;;;;;21.43;85.90;100995.44;10503000;28;20048;-59
2021/09/15 13:44:06;;;;;;;5.32;4.82;;;;;;;21.00;87.70;101002.38;10501918;28;20048;-60
2021/09/15 13:49:08;;;;;;;6.07;4.88;;;;;;;20.79;88.86;101006.16;10501690;28;20404;-60
2021/09/15 13:54:11;;;;;;;8.30;5.63;;;;;;;20.28;87.66;101007.53;10501684;28;20044;-59
2021/09/15 13:59:13;;;;;;;9.82;5.13;;;;;;;20.20;87.81;101009.06;10501200;28;20045;-59
2021/09/15 14:04:15;;;;;;;6.97;5.13;;;;;;;20.72;89.70;101008.56;10501715;28;20078;-59
2021/09/15 14:09:18;;;;;;;6.65;4.78;;;;;;;20.50;86.30;101003.63;10500666;28;20047;-60
2021/09/15 14:14:40;;;;;;;7.18;4.55;;;;;;;21.85;82.56;101002.75;10501539;28;20070;-60
2021/09/15 14:19:43;;;;;;;6.60;3.60;;;;;;;21.78;82.36;101002.56;10500188;28;20480;-60
2021/09/15 14:24:48;;;;;;;5.65;3.60;;;;;;;21.59;80.58;101003.59;10500551;28;20493;-59
2021/09/15 14:29:51;;;;;;;5.20;3.30;;;;;;;20.79;85.33;101011.47;10500775;28;20056;-59
2021/09/15 14:34:54;;;;;;;4.90;3.88;;;;;;;20.50;85.79;101017.75;10500028;28;20053;-59
2021/09/15 14:39:57;;;;;;;6.55;3.40;;;;;;;21.05;84.53;101005.44;10499612;28;20055;-60
2021/09/15 14:44:59;;;;;;;3.92;2.83;;;;;;;20.93;84.75;101007.47;10499711;28;20048;-59
2021/09/15 14:50:03;;;;;;;8.25;3.30;;;;;;;21.90;85.58;101000.47;10499789;28;20052;-60
2021/09/15 14:55:10;;;;;;;10.73;3.47;;;;;;;20.81;86.35;101017.47;10499137;28;20408;-59
2021/09/15 15:00:13;;;;;;;6.68;3.28;;;;;;;21.17;86.88;101022.84;10499114;28;20048;-60
2021/09/15 15:05:15;;;;;;;6.97;3.80;;;;;;;20.49;87.37;101023.22;10498358;28;20049;-59
2021/09/15 15:10:18;;;;;;;8.00;4.70;;;;;;;20.49;88.85;101028.56;10497146;28;20047;-59
2021/09/15 15:15:20;;;;;;;10.15;4.82;;;;;;;19.87;93.93;101031.72;10498541;28;20062;-60
2021/09/15 15:20:23;;;;;;;8.30;4.82;;;;;;;19.97;93.89;101031.66;10498327;28;20389;-59
2021/09/15 15:25:25;;;;;;;10.32;4.65;;;;;;;20.08;94.40;101031.50;10498606;28;20056;-59
2021/09/15 15:30:28;;;;;;;8.25;4.75;;;;;;;19.82;95.54;101032.13;10497912;28;20404;-59
2021/09/15 15:35:30;;;;;;;6.78;4.40;;;;;;;20.18;95.60;101036.78;10498204;28;20052;-59
2021/09/15 15:40:33;;;;;;;6.65;3.85;;;;;;;20.31;92.53;101052.41;10497752;28;20412;-59
2021/09/15 15:45:36;;;;;;;9.02;3.55;;;;;;;19.69;94.08;101052.81;10498281;28;20044;-59
2021/09/15 15:50:39;;;;;;;8.18;4.03;;;;;;;19.66;92.34;101055.75;10497703;28;20405;-59
2021/09/15 15:55:47;;;;;;;8.23;3.95;;;;;;;19.56;93.34;101065.53;10498232;28;20423;-59
2021/09/15 16:00:49;;;;;;;8.25;4.47;;;;;;;19.79;94.02;101064.28;10497885;28;20073;-59
2021/09/15 16:05:52;;;;;;;9.95;3.72;;;;;;;19.64;92.56;101068.34;10497398;28;20511;-59
2021/09/15 16:10:55;;;;;;;4.78;4.00;;;;;;;19.40;96.23;101061.63;10497454;28;20045;-60
2021/09/15 16:15:58;;;;;;;8.57;5.32;;;;;;;19.59;93.99;101079.38;10497427;28;20055;-59
2021/09/15 16:21:00;;;;;;;10.10;7.65;;;;;;;19.28;96.07;101082.16;10504679;28;20052;-60
2021/09/15 16:26:02;;;;;;;15.27;10.30;;;;;;;19.23;96.92;101084.38;10506204;28;20382;-59
2021/09/15 16:31:05;;;;;;;13.90;10.40;;;;;;;19.40;95.97;101085.53;10505009;28;20130;-57
2021/09/15 16:36:07;;;;;;;20.08;13.07;;;;;;;19.14;96.86;101097.63;10504467;28;20052;-58
2021/09/15 16:41:09;;;;;;;17.98;13.00;;;;;;;19.18;98.80;101099.03;10504602;28;20048;-58
2021/09/15 16:46:12;;;;;;;25.48;14.07;;;;;;;18.82;100.00;101106.59;10504266;28;20048;-58
2021/09/15 16:51:14;;;;;;;47.20;14.13;;;;;;;18.94;100.00;101106.38;10504010;28;20045;-60
2021/09/15 16:56:17;;;;;;;16.05;9.02;;;;;;;18.84;100.00;101115.28;10503737;28;20064;-59
2021/09/15 17:01:19;;;;;;;56.80;12.23;;;;;;;18.86;100.00;101114.19;10504137;28;20504;-61
2021/09/15 17:06:22;;;;;;;9.63;5.28;;;;;;;18.38;100.00;101117.41;10503498;28;20049;-59
2021/09/15 17:11:24;;;;;;;5.25;3.38;;;;;;;18.52;99.49;101132.13;10503990;28;20048;-59
2021/09/15 17:16:26;;;;;;;9.98;3.03;;;;;;;18.31;100.00;101126.88;10503440;28;20067;-60
2021/09/15 17:21:29;;;;;;;8.13;2.90;;;;;;;18.11;100.00;101134.69;10502752;28;20059;-60
2021/09/15 17:26:31;;;;;;;8.75;3.40;;;;;;;18.20;100.00;101146.31;10503381;28;20041;-60
2021/09/15 17:31:34;;;;;;;8.55;2.25;;;;;;;18.01;99.97;101141.72;10501461;28;20404;-60
2021/09/15 17:36:36;;;;;;;4.68;1.50;;;;;;;17.83;100.00;101146.69;10502368;28;20068;-59
2021/09/15 17:41:38;;;;;;;9.57;2.30;;;;;;;17.82;100.00;101147.69;10502673;28;20051;-59
2021/09/15 17:46:41;;;;;;;10.38;1.90;;;;;;;17.83;100.00;101152.00;10501971;28;20044;-60
2021/09/15 17:51:43;;;;;;;9.80;2.00;;;;;;;17.73;100.00;101151.06;10501885;28;20044;-60
2021/09/15 17:56:46;;;;;;;10.70;2.03;;;;;;;17.66;100.00;101149.91;10501556;28;20048;-60
2021/09/15 18:01:48;;;;;;;7.43;1.70;;;;;;;17.53;100.00;101158.81;10501830;28;20047;-60
2021/09/15 18:06:50;;;;;;;6.38;1.73;;;;;;;17.59;100.00;101168.94;10501163;28;20046;-59
2021/09/15 18:11:53;;;;;;;5.28;1.67;;;;;;;17.70;100.00;101173.38;10500864;28;20408;-59
2021/09/15 18:16:56;;;;;;;10.75;2.42;;;;;;;17.73;100.00;101183.69;10500900;28;20048;-60
2021/09/15 18:21:58;;;;;;;5.30;2.85;;;;;;;17.56;100.00;101198.28;10500482;28;20056;-60
2021/09/15 18:27:03;;;;;;;10.57;2.30;;;;;;;17.49;100.00;101199.75;10499963;28;20481;-59
2021/09/15 18:32:06;;;;;;;5.13;1.80;;;;;;;17.52;100.00;101209.28;10500345;28;20053;-60
2021/09/15 18:37:08;;;;;;;5.97;1.63;;;;;;;17.39;100.00;101217.34;10499974;28;20045;-60
2021/09/15 18:42:12;;;;;;;6.82;1.95;;;;;;;17.43;100.00;101232.88;10499876;28;20045;-59
2021/09/15 18:47:14;;;;;;;7.03;2.58;;;;;;;17.33;100.00;101229.28;10498365;28;20044;-60
2021/09/15 18:52:17;;;;;;;4.07;1.80;;;;;;;17.43;100.00;101240.81;10499662;28;20045;-59
2021/09/15 18:57:21;;;;;;;5.30;1.65;;;;;;;17.08;100.00;101254.16;10499266;28;20048;-60
2021/09/15 19:02:23;;;;;;;5.38;1.50;;;;;;;17.25;100.00;101255.50;10498980;28;20396;-59
2021/09/15 19:07:26;;;;;;;6.60;2.03;;;;;;;17.17;100.00;101265.84;10498655;28;20435;-59
2021/09/15 19:12:28;;;;;;;8.85;1.38;;;;;;;17.01;100.00;101276.75;10499112;28;20044;-60
2021/09/15 19:17:31;;;;;;;6.35;1.42;;;;;;;16.84;100.00;101278.00;10498682;28;20044;-59
2021/09/15 19:22:34;;;;;;;6.70;2.03;;;;;;;16.95;100.00;101288.66;10497171;28;20054;-59
2021/09/15 19:27:36;;;;;;;6.82;1.52;;;;;;;17.02;100.00;101299.59;10498194;28;20049;-59
2021/09/15 19:32:39;;;;;;;11.38;1.63;;;;;;;16.72;100.00;101300.94;10498247;28;20056;-60
2021/09/15 19:37:42;;;;;;;5.07;1.42;;;;;;;16.69;100.00;101307.31;10498387;28;20063;-60
2021/09/15 19:42:45;;;;;;;4.20;1.25;;;;;;;16.59;100.00;101308.09;10496926;28;20049;-59
2021/09/15 19:47:47;;;;;;;5.65;1.35;;;;;;;16.47;100.00;101326.53;10497823;28;20048;-59
2021/09/15 19:52:50;;;;;;;4.07;0.90;;;;;;;16.53;100.00;101323.47;10500065;28;20051;-59
2021/09/15 19:57:52;;;;;;;5.72;1.30;;;;;;;16.74;100.00;101322.81;10506032;28;20056;-59
2021/09/15 20:02:54;;;;;;;4.78;1.10;;;;;;;16.64;100.00;101338.53;10506600;28;20041;-59
2021/09/15 20:07:57;;;;;;;3.53;1.50;;;;;;;16.44;100.00;101341.78;10505742;28;20055;-59
2021/09/15 20:13:00;;;;;;;7.07;1.60;;;;;;;16.43;100.00;101340.97;10505993;28;20391;-60
2021/09/15 20:18:02;;;;;;;4.38;1.30;;;;;;;16.37;98.01;101351.13;10505652;28;20083;-59
2021/09/15 20:23:05;;;;;;;4.38;2.03;;;;;;;16.43;95.92;101348.06;10505328;28;20542;-59
2021/09/15 20:28:07;;;;;;;3.67;1.17;;;;;;;16.34;94.61;101341.66;10504951;28;20049;-59
2021/09/15 20:33:10;;;;;;;3.95;1.25;;;;;;;16.27;95.36;101348.31;10504956;28;20488;-59
2021/09/15 20:38:12;;;;;;;6.18;1.02;;;;;;;16.32;93.71;101348.81;10504442;28;20393;-59
2021/09/15 20:43:15;;;;;;;2.85;1.15;;;;;;;16.19;91.22;101348.03;10504536;28;20044;-59
2021/09/15 20:48:17;;;;;;;5.68;0.85;;;;;;;16.21;91.91;101352.25;10504960;28;20051;-59
2021/09/15 20:53:19;;;;;;;7.80;1.10;;;;;;;16.25;91.94;101360.78;10504140;28;20488;-59
2021/09/15 20:58:21;;;;;;;4.90;1.13;;;;;;;16.18;92.83;101355.09;10503850;28;20543;-60
2021/09/15 21:03:24;;;;;;;8.55;1.75;;;;;;;15.96;92.83;101358.44;10503401;28;20040;-60
2021/09/15 21:08:26;;;;;;;5.50;1.90;;;;;;;16.12;91.76;101361.69;10503014;28;20045;-60
2021/09/15 21:13:29;;;;;;;7.28;1.52;;;;;;;15.99;92.05;101360.88;10503291;28;20044;-59
2021/09/15 21:18:31;;;;;;;6.43;1.77;;;;;;;15.81;92.67;101370.09;10503206;28;20052;-59
2021/09/15 21:23:33;;;;;;;6.05;1.10;;;;;;;15.95;91.28;101376.09;10504188;28;20052;-60
2021/09/15 21:28:36;;;;;;;6.45;1.15;;;;;;;15.97;91.16;101378.63;10502479;28;20412;-60
2021/09/15 21:33:38;;;;;;;3.50;1.20;;;;;;;16.13;90.87;101375.72;10502779;28;20048;-59
2021/09/15 21:38:41;;;;;;;5.40;1.10;;;;;;;16.19;92.95;101380.59;10502288;28;20412;-59
2021/09/15 21:43:43;;;;;;;5.47;1.80;;;;;;;15.91;93.72;101384.34;10502615;28;20045;-60
2021/09/15 21:48:45;;;;;;;5.03;0.90;;;;;;;15.85;95.12;101384.75;10501965;28;20051;-60
2021/09/15 21:53:48;;;;;;;9.05;1.17;;;;;;;15.82;95.45;101379.69;10502242;28;20127;-59
2021/09/15 21:58:50;;;;;;;4.97;1.17;;;;;;;15.83;96.65;101384.03;10501730;28;20055;-59
2021/09/15 22:03:52;;;;;;;8.40;2.20;;;;;;;15.68;96.18;101381.47;10501616;28;20047;-60
2021/09/15 22:08:55;;;;;;;2.42;1.08;;;;;;;15.75;96.24;101379.25;10501127;28;20044;-60
2021/09/15 22:13:57;;;;;;;3.35;1.27;;;;;;;15.49;93.37;101389.81;10501656;28;20044;-59
2021/09/15 22:19:00;;;;;;;6.35;1.13;;;;;;;15.74;95.65;101399.53;10500186;28;20044;-59
2021/09/15 22:24:02;;;;;;;5.57;1.80;;;;;;;15.41;96.40;101392.97;10501327;28;20052;-59
2021/09/15 22:29:05;;;;;;;5.47;1.20;;;;;;;15.75;95.37;101398.63;10500470;28;20045;-60
2021/09/15 22:34:07;;;;;;;7.47;2.55;;;;;;;15.53;95.26;101388.69;10500260;28;20044;-59
2021/09/15 22:39:10;;;;;;;5.75;2.40;;;;;;;15.47;95.98;101385.63;10499948;28;20055;-60
2021/09/15 22:44:12;;;;;;;8.10;1.08;;;;;;;15.53;95.29;101393.09;10500141;28;20049;-59
2021/09/15 22:49:15;;;;;;;8.02;1.25;;;;;;;15.38;95.46;101387.06;10499404;28;20045;-59
2021/09/15 22:54:17;;;;;;;7.85;1.70;;;;;;;15.10;97.35;101385.47;10499729;28;20059;-59